< Typhoon 197007 1970 Season Typhoon 197009 >
Typhoon 197008 (VIOLET)
General InformationTrack Information on Google Maps || Disaster Info.ResourceGoogle EarthGE AnimationAtom FeedGeoJSON
Detalied Best Track (Time Zone = UTC)
Year Month Day Hour Lat. Long. Pressure (hPa) Wind (kt) Class Image Chart
1970 8 3 06 21.0 137.0 1006 0 2 -- Chart
1970 8 3 12 20.0 137.5 1006 0 2 -- Chart
1970 8 3 18 19.0 137.0 1006 0 2 -- Chart
1970 8 4 00 18.5 136.0 1006 0 2 -- Chart
1970 8 4 06 18.0 134.5 1004 0 2 -- Chart
1970 8 4 12 17.5 133.0 1004 0 2 -- Chart
1970 8 4 18 16.8 131.6 1004 0 2 -- Chart
1970 8 5 00 16.4 130.0 1004 0 2 -- Chart
1970 8 5 06 16.0 128.5 1002 0 2 -- Chart
1970 8 5 12 15.8 127.0 1002 0 2 -- Chart
1970 8 5 18 15.5 125.6 1000 0 2 -- Chart
1970 8 6 00 15.2 124.0 998 0 2 -- Chart
1970 8 6 06 15.4 123.6 996 0 9 -- Chart
1970 8 6 12 15.5 123.0 998 0 9 -- Chart
1970 8 6 18 15.9 122.3 998 0 9 -- Chart
1970 8 7 00 16.9 121.6 998 0 9 -- Chart
1970 8 7 06 17.7 120.4 998 0 9 -- Chart
1970 8 7 12 18.1 119.3 996 0 9 -- Chart
1970 8 7 18 18.8 118.3 992 0 9 -- Chart
1970 8 8 00 19.3 117.5 994 0 9 -- Chart
1970 8 8 06 20.1 116.6 998 0 9 -- Chart
1970 8 8 12 20.4 115.5 1000 0 2 -- Chart
1970 8 8 18 20.8 114.5 1000 0 2 -- Chart
1970 8 9 00 21.2 113.4 1002 0 2 -- Chart
1970 8 9 06 22.5 111.8 1004 0 2 -- Chart
1970 8 9 12 23.4 110.5 1005 0 2 -- Chart
Japan Meteorological Agency Best Track Data | Correction Date : 2013-03-19
< Typhoon 197007 1970 Season Typhoon 197009 >

Help